Terminal Aerodrome Forecast
Issued by NWS

Home | Current Version | Previous Version | Text Only | Print | Product List | Glossary On
Versions: 1 2 3 4 5 6 7 8 9 10 11 12 13 14 15 16 17 18 19 20 21
000
FTUS46 KSEW 202300
TAFPAE
TAF
KPAE 202320Z 2100/2124 36008KT P6SM SKC
     FM210400 03005KT P6SM SKC
     FM211600 18008KT P6SM SKC
     FM212100 24007KT P6SM SKC=

USA.gov is the U.S. government's official web portal to all federal, state and local government web resources and services.